createdAt,value
2023-02-06T00:02:01.268Z,65
2023-02-06T00:04:05.057Z,38.6
2023-02-06T00:06:11.687Z,50.7
2023-02-06T00:08:15.367Z,63.3
2023-02-06T00:10:19.112Z,53.2
2023-02-06T00:12:22.852Z,50.8
2023-02-06T00:16:30.224Z,59.6
2023-02-06T00:24:48.350Z,57.5
2023-02-06T00:28:55.842Z,31.5
2023-02-06T00:30:59.632Z,52
2023-02-06T00:35:10.039Z,47.8
2023-02-06T00:39:17.486Z,63
2023-02-06T00:41:21.303Z,37.5
2023-02-06T00:43:24.970Z,59.2
2023-02-06T00:47:32.448Z,60.8
2023-02-06T00:49:39.255Z,73.4
2023-02-06T00:51:43.013Z,44.2
2023-02-06T00:53:46.754Z,51
2023-02-06T00:54:50.197Z,58.5
2023-02-06T00:56:53.938Z,64.4
2023-02-06T00:58:57.685Z,60.2
2023-02-06T01:03:09.783Z,57.6
2023-02-06T01:05:13.460Z,34.1
2023-02-06T01:07:17.138Z,45.3
2023-02-06T01:09:20.907Z,61.8
2023-02-06T01:11:24.609Z,56
2023-02-06T01:13:28.308Z,28.8
2023-02-06T01:15:31.998Z,60.8
2023-02-06T01:17:38.780Z,62.2
2023-02-06T01:19:42.507Z,58.5
2023-02-06T01:21:46.180Z,58.2
2023-02-06T01:23:49.806Z,46.2
2023-02-06T01:25:53.490Z,43.9
2023-02-06T01:27:57.176Z,51.7
2023-02-06T01:30:00.770Z,47.5
2023-02-06T01:32:07.581Z,52.7
2023-02-06T01:34:11.239Z,50.9
2023-02-06T01:36:14.969Z,48.8
2023-02-06T01:40:22.478Z,44.5
2023-02-06T01:42:26.211Z,41.4
2023-02-06T01:44:29.962Z,36.3
2023-02-06T01:51:47.571Z,58.6
2023-02-06T01:53:51.279Z,45.2
2023-02-06T01:55:54.961Z,52.1
2023-02-06T01:57:58.656Z,50.2
2023-02-06T02:06:16.720Z,50
2023-02-06T02:08:20.463Z,43.2
2023-02-06T02:10:24.174Z,23.3
2023-02-06T02:12:27.797Z,44.8
2023-02-06T02:14:34.563Z,65.7
2023-02-06T02:20:45.664Z,46.8
2023-02-06T02:26:56.899Z,49.2
2023-02-06T02:31:07.497Z,47.8
2023-02-06T02:33:11.172Z,59.2
2023-02-06T02:35:14.919Z,54.3
2023-02-06T02:37:18.660Z,82.9
2023-02-06T02:39:22.313Z,50.2
2023-02-06T02:41:25.936Z,41.6
2023-02-06T02:43:32.679Z,68.6
2023-02-06T02:45:36.713Z,52.5
2023-02-06T02:47:39.994Z,39.2
2023-02-06T02:50:02.347Z,44.5
2023-02-06T02:52:05.987Z,53.2
2023-02-06T02:54:09.592Z,48.2
2023-02-06T02:56:16.361Z,49.7
2023-02-06T02:58:20.130Z,37.3
2023-02-06T03:00:23.735Z,49.4
2023-02-06T03:02:27.511Z,43.2
2023-02-06T03:04:31.176Z,51.2
2023-02-06T03:06:34.826Z,45.4
2023-02-06T03:08:38.536Z,51
2023-02-06T03:10:45.279Z,50.2
2023-02-06T03:12:49.006Z,41.8
2023-02-06T03:14:52.748Z,48.7
2023-02-06T03:16:56.404Z,51.2
2023-02-06T03:19:00.049Z,24.2
2023-02-06T03:23:07.321Z,56.1
2023-02-06T03:27:17.774Z,58.9
2023-02-06T03:31:25.288Z,30.3
2023-02-06T03:37:36.276Z,37.5
2023-02-06T03:39:43.022Z,70.4
2023-02-06T03:41:46.686Z,61.9
2023-02-06T03:44:53.725Z,34.2
2023-02-06T03:46:57.367Z,39.4
2023-02-06T03:49:01.077Z,24.8
2023-02-06T03:51:04.775Z,50.7
2023-02-06T03:53:11.591Z,46.3
2023-02-06T03:55:15.312Z,39.1
2023-02-06T03:57:18.958Z,31.4
2023-02-06T03:59:22.608Z,45.4
2023-02-06T04:01:26.264Z,42.5
2023-02-06T04:03:29.873Z,44.2
2023-02-06T04:07:40.286Z,53.9
2023-02-06T04:09:43.990Z,39.8
2023-02-06T04:11:47.718Z,49.2
2023-02-06T04:13:51.430Z,38.3
2023-02-06T04:15:55.098Z,46.8
2023-02-06T04:18:01.049Z,42.7
2023-02-06T04:32:28.154Z,50.8
2023-02-06T04:34:31.804Z,42.8
2023-02-06T04:36:38.501Z,41.2
2023-02-06T04:38:42.254Z,40.2
2023-02-06T04:40:45.991Z,30.8
2023-02-06T04:41:49.420Z,39.1
2023-02-06T04:43:53.082Z,50.8
2023-02-06T04:45:56.820Z,42.9
2023-02-06T04:50:07.289Z,36.2
2023-02-06T04:52:10.970Z,26
2023-02-06T04:54:14.656Z,26.6
2023-02-06T04:56:18.415Z,24.7
2023-02-06T04:58:22.114Z,41.1
2023-02-06T05:00:25.765Z,40.3
2023-02-06T05:02:29.496Z,33.8
2023-02-06T05:04:36.954Z,43.3
2023-02-06T05:06:40.716Z,41.1
2023-02-06T05:08:44.401Z,37.2
2023-02-06T05:10:48.053Z,46.1
2023-02-06T05:12:51.708Z,47.6
2023-02-06T05:14:55.390Z,35.4
2023-02-06T05:16:59.053Z,50.1
2023-02-06T05:19:05.819Z,37.1
2023-02-06T05:21:09.458Z,37.5
2023-02-06T05:23:13.233Z,23.8
2023-02-06T05:25:16.972Z,32.6
2023-02-06T05:29:24.415Z,34
2023-02-06T05:31:28.305Z,38
2023-02-06T05:33:35.042Z,60.2
2023-02-06T05:35:38.795Z,40.9
2023-02-06T05:37:42.435Z,29.9
2023-02-06T05:40:49.610Z,41.2
2023-02-06T05:42:53.327Z,33.8
2023-02-06T05:47:03.655Z,45.7
2023-02-06T05:49:07.402Z,36.8
2023-02-06T05:51:11.126Z,39
2023-02-06T05:53:14.863Z,38.1
2023-02-06T05:55:18.610Z,34.2
2023-02-06T05:57:22.338Z,30.1
2023-02-06T06:01:32.725Z,34.5
2023-02-06T06:03:36.509Z,43.9
2023-02-06T06:05:40.017Z,46.7
2023-02-06T06:07:43.664Z,45.2
2023-02-06T06:09:47.334Z,29.9
2023-02-06T06:11:51.034Z,38.7
2023-02-06T06:13:54.721Z,53.9
2023-02-06T06:16:01.550Z,33.4
2023-02-06T06:18:05.303Z,57.9
2023-02-06T06:20:08.880Z,35.5
2023-02-06T06:22:12.608Z,33.3
2023-02-06T06:24:16.262Z,45.7
2023-02-06T06:26:20.026Z,45.1
2023-02-06T06:28:23.741Z,59.9
2023-02-06T06:32:34.388Z,56.2
2023-02-06T06:34:38.129Z,40.5
2023-02-06T06:37:00.373Z,48
2023-02-06T06:39:04.038Z,60.2
2023-02-06T06:41:07.848Z,35.9
2023-02-06T06:45:18.426Z,30.5
2023-02-06T06:47:21.935Z,54.9
2023-02-06T06:57:43.743Z,40.2
2023-02-06T06:59:47.456Z,60
2023-02-06T07:01:51.204Z,32.6
2023-02-06T07:06:00.113Z,33.2
2023-02-06T07:10:07.494Z,42.8
2023-02-06T07:12:14.287Z,42.8
2023-02-06T07:14:18.040Z,33.1
2023-02-06T07:16:21.809Z,39
2023-02-06T07:20:29.342Z,27.2
2023-02-06T07:22:32.830Z,41.5
2023-02-06T07:24:36.591Z,29.9
2023-02-06T07:30:50.713Z,44.7
2023-02-06T07:33:57.781Z,49.8
2023-02-06T07:36:03.696Z,44.8
2023-02-06T07:38:05.237Z,31.2
2023-02-06T07:40:11.889Z,38.7
2023-02-06T07:42:15.507Z,31
2023-02-06T07:44:19.152Z,36.5
2023-02-06T07:46:22.830Z,31.9
2023-02-06T07:48:26.577Z,47.5
2023-02-06T07:50:30.296Z,43.3
2023-02-06T07:52:33.946Z,39
2023-02-06T08:02:55.448Z,41.3
2023-02-06T08:04:59.140Z,32.1
2023-02-06T08:07:02.745Z,33.4
2023-02-06T08:11:13.087Z,68.1
2023-02-06T08:13:16.762Z,45.1
2023-02-06T08:15:20.365Z,51.5
2023-02-06T08:17:23.976Z,30.9
2023-02-06T08:19:27.628Z,41.1
2023-02-06T08:21:31.275Z,24.8
2023-02-06T08:23:38.169Z,48.5
2023-02-06T08:25:41.822Z,42.6
2023-02-06T08:27:45.470Z,33
2023-02-06T08:28:48.770Z,32.1
2023-02-06T08:30:52.490Z,47.6
2023-02-06T08:32:56.075Z,51.4
2023-02-06T08:34:59.707Z,52.7
2023-02-06T08:37:06.423Z,42.8
2023-02-06T08:39:10.041Z,36.1
2023-02-06T08:41:13.678Z,29.9
2023-02-06T08:43:17.312Z,41.8
2023-02-06T08:45:20.963Z,30.2
2023-02-06T08:47:24.595Z,39
2023-02-06T08:49:28.248Z,39
2023-02-06T08:51:35.025Z,26.9
2023-02-06T08:53:38.626Z,35.4
2023-02-06T08:57:45.893Z,36.1
2023-02-06T08:59:49.508Z,43.1
2023-02-06T09:01:53.155Z,38.8
2023-02-06T09:03:56.838Z,42.1
2023-02-06T09:06:09.717Z,40.8
2023-02-06T09:08:07.196Z,35.6
2023-02-06T09:10:19.044Z,22
2023-02-06T09:12:14.485Z,31
2023-02-06T09:14:18.156Z,43.7
2023-02-06T09:16:21.794Z,22.2
2023-02-06T09:27:46.448Z,18
2023-02-06T09:29:49.973Z,25.4
2023-02-06T09:34:00.345Z,35.3
2023-02-06T09:36:03.927Z,25.8
2023-02-06T09:38:07.585Z,37
2023-02-06T09:40:11.241Z,36.8
2023-02-06T09:42:14.859Z,21.5
2023-02-06T09:48:28.879Z,35.2
2023-02-06T09:54:39.733Z,30.9
2023-02-06T09:56:43.371Z,23.8
2023-02-06T09:58:46.993Z,16
2023-02-06T10:00:50.634Z,27.4
2023-02-06T10:02:57.318Z,19.3
2023-02-06T10:05:00.902Z,20.8
2023-02-06T10:07:04.591Z,24.7
2023-02-06T10:09:08.187Z,11
2023-02-06T10:11:11.804Z,26.7
2023-02-06T10:13:15.513Z,19.3
2023-02-06T10:15:19.079Z,29
2023-02-06T10:17:25.746Z,25.3
2023-02-06T10:19:29.366Z,18.1
2023-02-06T10:21:32.999Z,17.1
2023-02-06T10:23:57.282Z,19.5
2023-02-06T10:26:00.849Z,28.7
2023-02-06T10:30:11.187Z,15.9
2023-02-06T10:34:18.409Z,32.1
2023-02-06T10:40:29.272Z,25.3
2023-02-06T10:42:32.835Z,20.2
2023-02-06T10:52:53.912Z,16.4
2023-02-06T10:54:57.542Z,17.5
2023-02-06T10:57:01.145Z,15.4
2023-02-06T10:59:07.804Z,24.5
2023-02-06T11:01:24.677Z,15.2
2023-02-06T11:03:15.010Z,15.4
2023-02-06T11:05:18.614Z,36
2023-02-06T11:07:22.231Z,20.5
2023-02-06T11:09:25.807Z,22.6
2023-02-06T11:11:29.404Z,20.4
2023-02-06T11:13:36.086Z,22.9
2023-02-06T11:15:39.763Z,20.2
2023-02-06T11:17:43.283Z,13.5
2023-02-06T11:18:46.630Z,16.2
2023-02-06T11:20:50.215Z,26.8
2023-02-06T11:22:53.964Z,15.6
2023-02-06T11:24:57.409Z,34.9
2023-02-06T11:27:04.041Z,32.5
2023-02-06T11:29:07.656Z,19.8
2023-02-06T11:33:14.871Z,16
2023-02-06T11:35:18.450Z,17.2
2023-02-06T11:37:22.045Z,19.9
2023-02-06T11:39:25.625Z,12.2
2023-02-06T11:41:32.281Z,13.8
2023-02-06T11:43:35.873Z,28.4
2023-02-06T11:51:50.236Z,20.5
2023-02-06T11:56:00.486Z,17.1
2023-02-06T12:00:07.675Z,9.6
2023-02-06T12:02:11.334Z,19.3
2023-02-06T12:04:14.844Z,14.6
2023-02-06T12:08:22.014Z,21.9
2023-02-06T12:10:28.677Z,8.8
2023-02-06T12:14:36.225Z,15
2023-02-06T12:15:46.663Z,24.7
2023-02-06T12:17:43.162Z,19.5
2023-02-06T12:19:46.722Z,14
2023-02-06T12:21:50.324Z,18.7
2023-02-06T12:23:56.989Z,10.6
2023-02-06T12:26:00.536Z,22.3
2023-02-06T12:28:04.128Z,13.4
2023-02-06T12:30:07.681Z,13.4
2023-02-06T12:32:11.284Z,7.4
2023-02-06T12:34:14.815Z,19.9
2023-02-06T12:46:39.997Z,19.7
2023-02-06T12:57:00.807Z,13.3
2023-02-06T13:01:17.675Z,9.8
2023-02-06T13:03:13.025Z,18.7
2023-02-06T13:05:16.554Z,10.4
2023-02-06T13:07:23.153Z,10.9
2023-02-06T13:11:30.254Z,15.2
2023-02-06T13:12:33.550Z,19.1
2023-02-06T13:14:39.303Z,20.7
2023-02-06T13:16:40.661Z,26.2
2023-02-06T13:18:44.224Z,16.1
2023-02-06T13:20:50.902Z,11.6
2023-02-06T13:22:54.465Z,18.2
2023-02-06T13:24:58.010Z,10.7
2023-02-06T13:27:01.549Z,15.2
2023-02-06T13:29:05.125Z,16
2023-02-06T13:31:08.799Z,11.8
2023-02-06T13:33:12.254Z,24.7
2023-02-06T13:41:29.635Z,15
2023-02-06T13:43:33.206Z,25
2023-02-06T13:47:40.399Z,13.7
2023-02-06T13:49:47.054Z,14.8
2023-02-06T13:51:50.628Z,19.8
2023-02-06T13:53:54.234Z,18.8
2023-02-06T13:55:57.824Z,23.5
2023-02-06T13:58:01.431Z,25.7
2023-02-06T14:00:05.019Z,20.8
2023-02-06T14:02:08.616Z,26.7
2023-02-06T14:04:15.295Z,24.1
2023-02-06T14:06:19.046Z,20.5
2023-02-06T14:10:46.872Z,13.1
2023-02-06T14:12:50.519Z,9.8
2023-02-06T14:17:00.751Z,9
2023-02-06T14:19:04.362Z,10.9
2023-02-06T14:21:07.951Z,15.4
2023-02-06T14:27:18.693Z,17.1
2023-02-06T14:29:22.251Z,11.6
2023-02-06T14:31:29.038Z,16.7
2023-02-06T14:33:32.530Z,26.5
2023-02-06T14:37:39.718Z,13.2
2023-02-06T14:39:43.298Z,18.8
2023-02-06T14:46:06.702Z,13.1
2023-02-06T14:48:00.724Z,9.6
2023-02-06T14:50:04.338Z,7.9
2023-02-06T14:52:07.939Z,12.6
2023-02-06T14:54:11.515Z,9.5
2023-02-06T14:56:15.142Z,10.1
2023-02-06T14:58:18.717Z,10.9
2023-02-06T15:00:25.427Z,10.6
2023-02-06T15:02:29.003Z,9.9
2023-02-06T15:04:32.597Z,10
2023-02-06T15:09:43.072Z,24.3
2023-02-06T15:11:46.689Z,12.7
2023-02-06T15:13:53.289Z,14.6
2023-02-06T15:15:56.912Z,13.3
2023-02-06T15:18:00.443Z,12.6
2023-02-06T15:42:49.516Z,19.3
2023-02-06T15:44:53.097Z,15.3
2023-02-06T15:49:00.314Z,14.1
2023-02-06T15:55:11.154Z,12.5
2023-02-06T15:59:21.417Z,14
2023-02-06T16:08:39.182Z,14.2
2023-02-06T16:21:03.960Z,26
2023-02-06T16:25:14.263Z,18.8
2023-02-06T16:27:17.876Z,12.4
2023-02-06T16:29:21.491Z,15.7
2023-02-06T16:31:25.324Z,11.5
2023-02-06T16:33:28.716Z,19.5
2023-02-06T16:35:32.357Z,23.1
2023-02-06T16:37:35.996Z,15.1
2023-02-06T16:39:42.687Z,6.6
2023-02-06T16:41:46.324Z,10.1
2023-02-06T16:43:49.948Z,15.2
2023-02-06T16:45:53.662Z,11.3
2023-02-06T16:47:57.191Z,25.3
2023-02-06T16:50:00.998Z,13.7
2023-02-06T16:52:04.491Z,13.6
2023-02-06T16:54:11.226Z,30
2023-02-06T16:58:18.488Z,27
2023-02-06T17:03:29.136Z,15.5
2023-02-06T17:05:32.787Z,20
2023-02-06T17:07:39.450Z,20.8
2023-02-06T17:09:43.107Z,33.2
2023-02-06T17:11:46.778Z,13.9
2023-02-06T17:13:50.411Z,21.7
2023-02-06T17:15:54.055Z,18.5
2023-02-06T17:17:57.708Z,22.2
2023-02-06T17:20:01.343Z,25
2023-02-06T17:22:08.037Z,22.1
2023-02-06T17:24:11.667Z,21.9
2023-02-06T17:28:19.158Z,19.7
2023-02-06T17:30:22.777Z,20.5
2023-02-06T17:32:26.363Z,23.7
2023-02-06T17:34:29.976Z,14.4
2023-02-06T17:36:36.773Z,29.2
2023-02-06T17:38:40.417Z,17.3
2023-02-06T17:40:44.108Z,21.1
2023-02-06T17:42:47.661Z,30.5
2023-02-06T17:44:51.399Z,14.1
2023-02-06T17:46:55.109Z,18.2
2023-02-06T17:48:58.724Z,17.8
2023-02-06T17:53:09.061Z,27.3
2023-02-06T17:55:12.730Z,35.3
2023-02-06T17:57:35.171Z,25.4
2023-02-06T17:59:38.835Z,20.4
2023-02-06T18:01:42.568Z,25.5
2023-02-06T18:03:49.181Z,24.7
2023-02-06T18:05:52.820Z,18.7
2023-02-06T18:07:56.537Z,19.3
2023-02-06T18:10:00.204Z,29.1
2023-02-06T18:12:03.962Z,28.8
2023-02-06T18:14:07.608Z,29.4
2023-02-06T18:16:11.308Z,24.7
2023-02-06T18:18:18.135Z,27.5
2023-02-06T18:20:21.763Z,30.9
2023-02-06T18:22:25.492Z,32.3
2023-02-06T18:24:29.243Z,33.5
2023-02-06T18:26:32.859Z,35
2023-02-06T18:28:36.614Z,49.2
2023-02-06T18:30:40.462Z,31
2023-02-06T18:32:47.195Z,40.5
2023-02-06T18:34:50.874Z,37.1
2023-02-06T18:36:54.544Z,37
2023-02-06T18:38:58.124Z,39.9
2023-02-06T18:41:01.800Z,38.4
2023-02-06T18:43:05.518Z,41.4
2023-02-06T18:45:09.204Z,34.7
2023-02-06T18:51:23.247Z,37
2023-02-06T18:52:26.637Z,48.6
2023-02-06T18:54:30.371Z,49.1
2023-02-06T18:56:35.589Z,44.4
2023-02-06T19:00:46.193Z,39.5
2023-02-06T19:02:49.829Z,61.2
2023-02-06T19:04:53.476Z,53.2
2023-02-06T19:09:00.968Z,64
2023-02-06T19:11:04.593Z,49.2
2023-02-06T19:13:08.229Z,55.9
2023-02-06T19:15:15.040Z,58.7
2023-02-06T19:17:18.792Z,48
2023-02-06T19:19:22.465Z,38
2023-02-06T19:21:26.213Z,41.4
2023-02-06T19:23:30.016Z,31.7
2023-02-06T19:25:33.745Z,43
2023-02-06T19:27:37.446Z,32.8
2023-02-06T19:29:44.214Z,48.2
2023-02-06T19:40:02.756Z,41.4
2023-02-06T19:44:13.272Z,58.2
2023-02-06T19:46:16.994Z,47
2023-02-06T19:48:20.743Z,56.4
2023-02-06T19:49:24.189Z,60.1
2023-02-06T19:53:31.629Z,55.8
2023-02-06T19:55:35.312Z,57.1
2023-02-06T19:57:42.181Z,51.3
2023-02-06T19:59:45.976Z,52.3
2023-02-06T20:01:49.708Z,42.9
2023-02-06T20:03:53.355Z,45.8
2023-02-06T20:05:57.081Z,56.4
2023-02-06T20:08:00.724Z,61.1
2023-02-06T20:10:04.482Z,56
2023-02-06T20:12:11.231Z,61
2023-02-06T20:14:14.913Z,52.3
2023-02-06T20:16:18.679Z,39.9
2023-02-06T20:18:22.281Z,52.1
2023-02-06T20:20:26.290Z,53
2023-02-06T20:22:30.149Z,47.9
2023-02-06T20:24:33.325Z,36
2023-02-06T20:26:40.219Z,42.6
2023-02-06T20:28:43.856Z,53.2
2023-02-06T20:30:47.634Z,59.2
2023-02-06T20:32:51.201Z,39.2
2023-02-06T20:34:54.882Z,61.2
2023-02-06T20:36:58.620Z,47.5
2023-02-06T20:39:02.371Z,55.7
2023-02-06T20:41:09.292Z,51.9
2023-02-06T20:43:13.016Z,52.9
2023-02-06T20:45:16.913Z,49.5
2023-02-06T20:46:20.173Z,60.7
2023-02-06T20:48:23.908Z,52.4
2023-02-06T20:50:29.381Z,55.1
2023-02-06T20:52:31.359Z,54.9
2023-02-06T20:54:38.395Z,61.7
2023-02-06T20:56:42.051Z,60
2023-02-06T20:58:45.742Z,61.3
2023-02-06T21:02:53.395Z,65.5
2023-02-06T21:04:56.883Z,44.8
2023-02-06T21:07:00.661Z,54.9
2023-02-06T21:11:11.190Z,62.2
2023-02-06T21:13:14.925Z,67.6
2023-02-06T21:15:18.673Z,59
2023-02-06T21:17:22.409Z,61.3
2023-02-06T21:19:26.146Z,72.9
2023-02-06T21:27:43.957Z,74.8
2023-02-06T21:29:47.700Z,59.4
2023-02-06T21:32:00.616Z,72.8
2023-02-06T21:33:55.136Z,65
2023-02-06T21:35:58.842Z,64.9
2023-02-06T21:38:05.765Z,66.4
2023-02-06T21:40:09.475Z,67.8
2023-02-06T21:42:13.117Z,58
2023-02-06T21:44:19.371Z,54.2
2023-02-06T21:46:23.107Z,63.3
2023-02-06T21:48:26.810Z,47.6
2023-02-06T21:50:33.057Z,49.8
2023-02-06T21:52:36.770Z,53.6
2023-02-06T21:54:40.365Z,45
2023-02-06T21:56:46.625Z,59
2023-02-06T21:58:50.307Z,62.2
2023-02-06T22:00:53.903Z,51
2023-02-06T22:03:00.219Z,74.2
2023-02-06T22:05:03.849Z,64.1
2023-02-06T22:14:21.402Z,70.4
2023-02-06T22:16:25.197Z,71.1
2023-02-06T22:18:31.402Z,75.5
2023-02-06T22:20:35.180Z,71.6
2023-02-06T22:22:38.906Z,57
2023-02-06T22:35:06.393Z,61.5
2023-02-06T22:39:16.362Z,71.6
2023-02-06T22:41:20.131Z,78.3
2023-02-06T22:43:26.383Z,69.3
2023-02-06T22:45:30.145Z,88.4
2023-02-06T22:47:33.835Z,59.9
2023-02-06T22:49:40.002Z,75.5
2023-02-06T22:51:43.770Z,66.7
2023-02-06T22:53:47.398Z,72.9
2023-02-06T22:55:53.681Z,72.2
2023-02-06T22:57:57.408Z,83.5
2023-02-06T23:00:01.081Z,77.1
2023-02-06T23:02:07.373Z,78.9
2023-02-06T23:06:14.682Z,73.4
2023-02-06T23:08:20.985Z,79.9
2023-02-06T23:10:24.713Z,72.9
2023-02-06T23:12:28.395Z,69.6
2023-02-06T23:14:34.627Z,73.6
2023-02-06T23:16:38.353Z,70
2023-02-06T23:18:42.062Z,79.8
2023-02-06T23:20:48.353Z,73.5
2023-02-06T23:22:52.156Z,59.3
2023-02-06T23:24:55.827Z,72.9
2023-02-06T23:30:04.388Z,48.5
2023-02-06T23:32:08.007Z,48.4
2023-02-06T23:34:11.759Z,54.6
2023-02-06T23:40:25.512Z,62.6
2023-02-06T23:42:31.757Z,42.9
2023-02-06T23:44:35.428Z,51.2
2023-02-06T23:52:52.692Z,49.3
2023-02-06T23:54:58.848Z,51.9
2023-02-06T23:59:06.249Z,57.3
